Time;durP1;ratioP1;P1;durP2;ratioP2;P2;SDS_P1;SDS_P2;PMS_P1;PMS_P2;Temp;Humidity;BMP_temperature;BMP_pressure;BME280_temperature;BME280_humidity;BME280_pressure;Samples;Min_cycle;Max_cycle;Signal;HPM_P1;HPM_P2
2023/07/11 00:04:57;;;;;;;13.80;10.60;;;;;;;20.49;67.36;98574.86;435325;1254;97922;-41
2023/07/11 00:25:13;;;;;;;13.40;11.30;;;;;;;20.11;69.17;98569.56;435161;1254;106866;-44
2023/07/11 00:35:21;;;;;;;14.60;10.90;;;;;;;19.93;69.78;98574.25;435171;1251;97877;-40
2023/07/11 00:46:03;;;;;;;13.20;10.50;;;;;;;19.80;69.75;98568.31;435022;1255;107294;-41
2023/07/11 00:56:15;;;;;;;12.00;9.90;;;;;;;19.63;69.83;98567.29;435129;1256;98047;-43
2023/07/11 01:06:26;;;;;;;13.80;11.20;;;;;;;19.42;70.53;98572.53;435287;1256;109748;-43
2023/07/11 01:16:33;;;;;;;15.60;11.20;;;;;;;19.26;71.02;98574.39;436129;1251;107390;-43
2023/07/11 01:26:41;;;;;;;12.20;10.90;;;;;;;19.20;71.26;98574.81;435420;1251;96606;-43
2023/07/11 01:36:48;;;;;;;12.20;10.90;;;;;;;19.07;71.57;98571.63;435309;1256;108497;-42
2023/07/11 01:46:56;;;;;;;15.60;11.90;;;;;;;18.91;72.23;98572.23;435231;1251;97890;-45
2023/07/11 01:57:03;;;;;;;13.70;11.10;;;;;;;18.80;72.74;98587.05;435187;1255;110549;-42
2023/07/11 02:07:10;;;;;;;12.80;10.00;;;;;;;18.68;73.15;98591.92;435235;1257;107124;-42
2023/07/11 02:27:23;;;;;;;13.20;11.30;;;;;;;18.54;74.28;98598.52;435407;1251;107831;-43
2023/07/11 02:37:30;;;;;;;14.70;10.60;;;;;;;18.32;74.45;98606.15;435278;1256;97864;-43
2023/07/11 02:47:37;;;;;;;11.00;9.30;;;;;;;18.24;74.57;98609.15;435222;1256;109825;-42
2023/07/11 02:57:43;;;;;;;10.40;9.30;;;;;;;18.18;74.26;98608.88;435253;1255;108413;-41
2023/07/11 03:07:50;;;;;;;12.60;8.90;;;;;;;18.18;74.29;98607.70;435267;1251;98511;-42
2023/07/11 03:17:57;;;;;;;13.40;8.40;;;;;;;18.22;74.53;98607.19;435323;1255;107857;-43
2023/07/11 03:28:03;;;;;;;10.60;8.60;;;;;;;18.58;74.49;98615.66;435382;1257;97893;-44
2023/07/11 03:38:10;;;;;;;10.10;7.80;;;;;;;19.60;73.75;98613.84;435401;1251;109587;-43
2023/07/11 03:48:18;;;;;;;11.30;8.70;;;;;;;20.73;71.97;98622.27;435400;1256;109749;-44
2023/07/11 04:08:33;;;;;;;15.20;7.80;;;;;;;22.73;68.35;98624.90;435418;1254;109524;-41
2023/07/11 04:18:40;;;;;;;7.40;6.30;;;;;;;23.35;66.20;98628.55;435293;1251;107281;-43
2023/07/11 04:28:47;;;;;;;7.80;6.10;;;;;;;24.10;64.90;98633.39;435300;1251;97464;-42
2023/07/11 04:48:59;;;;;;;;;;;;;;;24.79;60.72;98638.77;435201;1251;111045;-43
2023/07/11 04:59:06;;;;;;;8.60;6.00;;;;;;;24.26;59.64;98645.83;435277;1251;97900;-42
2023/07/11 05:09:11;;;;;;;;;;;;;;;23.79;59.29;98665.77;435496;1255;110237;-42
2023/07/11 05:19:18;;;;;;;10.00;7.60;;;;;;;23.51;58.96;98679.70;435351;1251;108439;-43
2023/07/11 05:29:25;;;;;;;14.00;7.40;;;;;;;23.07;59.22;98684.96;435543;1251;97355;-44
2023/07/11 05:59:45;;;;;;;9.70;8.10;;;;;;;23.70;57.48;98716.30;435470;1251;97893;-41
2023/07/11 06:09:52;;;;;;;10.80;7.20;;;;;;;23.20;57.81;98716.89;435368;1251;109644;-42
2023/07/11 06:20:03;;;;;;;7.90;6.60;;;;;;;23.04;58.30;98712.86;435375;1254;108181;-41
2023/07/11 06:30:10;;;;;;;7.70;6.70;;;;;;;24.03;57.64;98709.99;435561;1255;97846;-41
2023/07/11 06:40:17;;;;;;;10.10;6.20;;;;;;;24.73;56.32;98709.41;435200;1251;109676;-41
2023/07/11 06:50:24;;;;;;;8.40;5.50;;;;;;;24.80;55.19;98699.71;435406;1251;109416;-42
2023/07/11 07:00:32;;;;;;;9.50;6.10;;;;;;;25.17;54.38;98702.44;435332;1256;97893;-41
2023/07/11 07:10:37;;;;;;;;;;;;;;;25.54;53.52;98707.09;435426;1251;110771;-42
2023/07/11 07:20:43;;;;;;;7.90;5.60;;;;;;;25.69;52.66;98713.60;435481;1256;108878;-41
2023/07/11 07:41:13;;;;;;;5.70;5.20;;;;;;;25.63;51.38;98715.54;435512;1251;110747;-40
2023/07/11 07:51:21;;;;;;;7.20;5.20;;;;;;;26.11;50.90;98710.82;435393;1251;109503;-44
2023/07/11 08:01:31;;;;;;;7.40;5.00;;;;;;;26.25;49.57;98709.33;435444;1256;98148;-41
2023/07/11 08:11:38;;;;;;;4.70;4.10;;;;;;;26.02;48.86;98717.58;435417;1254;110835;-42
2023/07/11 08:21:45;;;;;;;4.10;3.80;;;;;;;25.97;48.84;98719.59;435250;1251;109532;-41
2023/07/11 08:31:52;;;;;;;5.20;4.50;;;;;;;26.66;47.79;98715.66;435328;1256;97467;-40
2023/07/11 08:42:06;;;;;;;12.40;4.00;;;;;;;26.82;47.04;98719.55;435358;1256;110982;-42
2023/07/11 08:52:15;;;;;;;10.70;3.80;;;;;;;26.96;46.30;98714.55;435293;1251;107924;-41
2023/07/11 09:02:27;;;;;;;5.40;3.50;;;;;;;27.09;45.37;98718.20;435244;1256;97454;-42
2023/07/11 09:12:35;;;;;;;4.40;3.50;;;;;;;27.34;44.61;98719.46;435548;1256;110424;-43
2023/07/11 09:32:47;;;;;;;;;;;;;;;27.73;42.99;98725.35;435298;1256;97896;-42
2023/07/11 09:42:57;;;;;;;4.40;3.20;;;;;;;28.06;42.19;98721.52;435269;1256;109575;-43
2023/07/11 09:53:09;;;;;;;4.70;3.30;;;;;;;28.15;41.67;98714.91;435277;1254;107776;-43
2023/07/11 10:13:23;;;;;;;5.70;3.50;;;;;;;28.48;40.58;98704.77;435276;1251;109467;-43
2023/07/11 10:23:45;;;;;;;4.00;3.60;;;;;;;28.55;40.15;98705.35;435278;1256;108687;-42
2023/07/11 10:33:54;;;;;;;3.30;3.00;;;;;;;28.10;39.77;98708.55;435440;1256;97998;-43
2023/07/11 10:44:04;;;;;;;2.60;2.40;;;;;;;27.89;40.06;98712.04;435423;1256;109820;-41
2023/07/11 10:54:11;;;;;;;5.90;3.60;;;;;;;27.92;39.43;98709.30;435312;1251;108324;-43
2023/07/11 11:04:17;;;;;;;3.80;3.20;;;;;;;27.67;39.08;98699.77;435333;1255;96616;-41
2023/07/11 11:14:33;;;;;;;4.20;2.70;;;;;;;28.02;38.69;98699.43;435364;1251;108782;-42
2023/07/11 11:34:50;;;;;;;5.70;3.10;;;;;;;28.58;37.33;98686.16;435257;1256;109763;-41
2023/07/11 11:55:35;;;;;;;2.70;2.50;;;;;;;29.09;36.32;98684.95;435395;1256;96635;-42
2023/07/11 12:05:48;;;;;;;4.90;4.20;;;;;;;29.26;35.47;98684.84;435312;1251;110958;-42
2023/07/11 12:15:56;;;;;;;6.40;3.90;;;;;;;29.46;35.70;98683.56;435149;1255;368784;-42
2023/07/11 12:26:17;;;;;;;5.70;2.90;;;;;;;28.81;35.16;98680.39;435380;1251;97168;-42
2023/07/11 12:36:56;;;;;;;3.40;2.70;;;;;;;28.70;35.58;98664.85;435294;1255;110539;-41
2023/07/11 12:47:02;;;;;;;4.70;3.30;;;;;;;28.95;34.98;98668.44;433084;1262;108127;-42
2023/07/11 12:57:13;;;;;;;4.50;3.00;;;;;;;28.18;34.88;98674.13;433056;1263;97683;-41
2023/07/11 13:07:25;;;;;;;6.40;3.10;;;;;;;27.95;35.28;98663.53;433091;1262;110717;-43
2023/07/11 13:17:33;;;;;;;6.10;3.00;;;;;;;28.67;35.08;98654.67;434137;1254;107540;-42
2023/07/11 13:27:45;;;;;;;3.60;2.50;;;;;;;28.90;34.47;98657.11;435395;1256;96888;-43
2023/07/11 13:37:53;;;;;;;9.50;3.40;;;;;;;28.89;33.79;98653.58;435305;1256;109349;-42
2023/07/11 13:48:02;;;;;;;10.40;3.30;;;;;;;28.88;33.43;98651.68;435371;1256;107899;-44
2023/07/11 13:58:10;;;;;;;7.50;3.80;;;;;;;28.55;33.81;98647.36;435412;1254;96994;-42
2023/07/11 14:08:19;;;;;;;4.20;3.60;;;;;;;28.32;33.79;98647.21;435221;1251;107560;-41
2023/07/11 14:28:31;;;;;;;;;;;;;;;27.64;34.43;98637.20;435356;1257;110237;-42
2023/07/11 14:38:38;;;;;;;3.90;3.50;;;;;;;27.30;34.72;98638.39;435353;1256;108715;-41
2023/07/11 14:48:45;;;;;;;6.30;3.90;;;;;;;27.06;34.61;98634.88;435355;1257;96640;-42
2023/07/11 14:58:56;;;;;;;6.50;4.00;;;;;;;27.15;34.60;98632.39;435305;1255;110773;-42
2023/07/11 15:09:04;;;;;;;4.20;3.50;;;;;;;27.35;34.47;98625.51;435439;1256;106598;-41
2023/07/11 15:29:20;;;;;;;5.70;3.20;;;;;;;27.62;34.23;98625.31;435439;1256;107707;-42
2023/07/11 15:39:27;;;;;;;5.80;3.30;;;;;;;27.57;34.20;98623.23;435326;1254;96624;-42
2023/07/11 15:49:34;;;;;;;11.10;4.40;;;;;;;27.35;33.92;98619.61;435444;1255;110486;-40
2023/07/11 15:59:41;;;;;;;3.30;3.00;;;;;;;27.24;34.45;98616.46;435251;1257;108503;-41
2023/07/11 16:09:46;;;;;;;3.80;2.80;;;;;;;27.16;34.21;98612.24;435272;1256;97562;-42
2023/07/11 16:19:53;;;;;;;4.10;2.70;;;;;;;27.12;34.48;98605.08;435415;1257;96981;-41
2023/07/11 16:30:00;;;;;;;5.10;2.70;;;;;;;27.01;34.31;98608.87;435259;1255;108351;-42
2023/07/11 16:40:16;;;;;;;5.20;3.00;;;;;;;26.90;34.20;98603.02;435326;1256;97377;-42
2023/07/11 16:50:26;;;;;;;3.60;2.70;;;;;;;26.88;34.50;98597.98;435398;1256;111710;-42
2023/07/11 17:00:34;;;;;;;3.00;2.80;;;;;;;26.66;34.26;98598.64;435238;1264;107481;-41
2023/07/11 17:10:40;;;;;;;6.90;2.80;;;;;;;26.45;34.62;98597.01;435292;1257;97967;-42
2023/07/11 17:20:45;;;;;;;4.40;2.80;;;;;;;26.27;34.71;98597.96;435359;1261;110343;-41
2023/07/11 17:30:53;;;;;;;6.80;2.30;;;;;;;26.06;34.90;98588.77;435324;1257;109487;-42
2023/07/11 17:41:00;;;;;;;4.50;2.40;;;;;;;25.80;35.14;98586.21;435290;1259;97867;-43
2023/07/11 17:51:11;;;;;;;8.60;2.60;;;;;;;25.59;35.43;98584.46;435372;1264;109624;-43
2023/07/11 18:01:21;;;;;;;6.60;2.80;;;;;;;25.18;35.74;98586.41;435299;1256;108556;-42
2023/07/11 18:11:28;;;;;;;4.80;2.70;;;;;;;24.62;36.67;98589.67;435422;1251;97352;-42
2023/07/11 18:21:35;;;;;;;;;;;;;;;24.07;37.74;98585.78;435344;1257;108407;-41
2023/07/11 18:31:42;;;;;;;5.40;4.40;;;;;;;23.64;38.52;98590.56;435347;1264;97980;-42
2023/07/11 18:41:50;;;;;;;6.90;4.30;;;;;;;23.21;39.49;98596.39;435266;1255;110466;-43
2023/07/11 18:51:57;;;;;;;6.50;3.30;;;;;;;22.82;40.39;98595.35;435237;1257;107760;-45
2023/07/11 19:02:13;;;;;;;8.70;3.60;;;;;;;22.42;41.30;98599.02;435402;1258;96621;-43
2023/07/11 19:12:25;;;;;;;7.10;3.60;;;;;;;21.97;42.35;98592.59;435419;1257;109854;-42
2023/07/11 19:42:51;;;;;;;7.40;5.20;;;;;;;20.68;45.47;98594.52;435401;1251;109885;-41
2023/07/11 19:53:00;;;;;;;13.50;7.20;;;;;;;20.31;46.23;98598.40;435225;1251;108636;-42
2023/07/11 20:03:06;;;;;;;17.00;8.80;;;;;;;20.00;46.87;98593.58;435269;1256;98023;-47
2023/07/11 20:23:21;;;;;;;17.10;10.90;;;;;;;19.51;48.44;98586.52;435430;1251;107976;-43
2023/07/11 20:33:28;;;;;;;15.30;9.60;;;;;;;19.36;48.91;98580.17;435224;1257;96702;-43
2023/07/11 20:43:42;;;;;;;15.60;8.90;;;;;;;19.13;49.58;98574.17;435285;1251;111057;-41
2023/07/11 20:53:49;;;;;;;13.30;9.10;;;;;;;19.01;50.45;98563.77;435255;1251;107966;-41
2023/07/11 21:03:57;;;;;;;15.00;9.90;;;;;;;18.90;50.95;98552.48;435303;1256;97474;-41
2023/07/11 21:14:07;;;;;;;16.30;9.90;;;;;;;18.74;51.65;98538.14;435334;1257;110343;-43
2023/07/11 21:24:15;;;;;;;15.60;10.10;;;;;;;18.78;52.38;98528.30;435296;1257;108379;-42
2023/07/11 21:34:22;;;;;;;21.60;11.10;;;;;;;18.78;53.01;98531.41;435354;1256;97425;-43
2023/07/11 21:44:30;;;;;;;14.30;10.40;;;;;;;18.65;53.41;98515.34;435332;1257;108320;-41
2023/07/11 21:54:36;;;;;;;20.40;11.40;;;;;;;18.50;53.84;98503.71;435387;1258;97785;-40
2023/07/11 22:04:40;;;;;;;16.80;11.40;;;;;;;18.32;54.31;98491.48;435304;1251;109514;-42
2023/07/11 22:14:47;;;;;;;18.20;10.50;;;;;;;18.22;54.79;98468.58;435294;1258;97880;-41
2023/07/11 22:24:54;;;;;;;16.20;9.70;;;;;;;18.15;55.23;98452.95;435255;1251;97883;-41
2023/07/11 22:35:01;;;;;;;21.50;12.40;;;;;;;17.88;55.85;98436.40;435418;1251;110834;-44
2023/07/11 22:45:07;;;;;;;26.00;12.40;;;;;;;17.56;56.65;98414.30;435334;1254;108403;-42
2023/07/11 22:55:13;;;;;;;19.60;11.30;;;;;;;17.51;57.38;98420.33;435350;1254;97913;-43
2023/07/11 23:05:21;;;;;;;20.80;11.10;;;;;;;17.68;57.67;98433.89;435190;1251;109428;-44
2023/07/11 23:15:27;;;;;;;18.50;12.80;;;;;;;17.68;58.00;98448.34;435370;1251;107090;-44
2023/07/11 23:35:41;;;;;;;20.60;12.00;;;;;;;17.32;59.03;98467.30;435221;1251;110604;-42
2023/07/11 23:45:52;;;;;;;16.70;11.90;;;;;;;17.31;59.33;98472.77;435288;1266;107441;-43
2023/07/11 23:56:00;;;;;;;20.70;12.70;;;;;;;17.31;59.83;98470.40;435469;1254;96570;-44
